createdAt,value
2019-02-26T00:01:07.373Z,91.90
2019-02-26T00:06:11.054Z,92.20
2019-02-26T00:11:15.325Z,92.60
2019-02-26T00:16:20.561Z,92.60
2019-02-26T00:21:26.387Z,92.70
2019-02-26T00:26:30.299Z,92.50
2019-02-26T00:31:34.073Z,92.80
2019-02-26T00:36:38.248Z,92.90
2019-02-26T00:41:42.731Z,92.60
2019-02-26T00:46:47.179Z,92.50
2019-02-26T00:51:52.796Z,92.90
2019-02-26T00:56:59.004Z,92.90
2019-02-26T01:02:01.801Z,93.30
2019-02-26T01:07:07.566Z,93.70
2019-02-26T01:12:13.567Z,93.70
2019-02-26T01:17:18.702Z,93.70
2019-02-26T01:22:22.263Z,93.90
2019-02-26T01:27:25.959Z,94.00
2019-02-26T01:32:29.736Z,93.90
2019-02-26T01:37:36.127Z,93.80
2019-02-26T01:42:38.943Z,93.60
2019-02-26T01:47:45.275Z,94.00
2019-02-26T01:52:49.978Z,94.30
2019-02-26T01:57:53.574Z,94.50
2019-02-26T02:02:57.314Z,95.30
2019-02-26T02:08:01.324Z,95.80
2019-02-26T02:13:07.060Z,95.50
2019-02-26T02:18:10.713Z,95.30
2019-02-26T02:23:16.553Z,95.20
2019-02-26T02:28:23.625Z,95.60
2019-02-26T02:33:27.533Z,96.00
2019-02-26T02:38:31.433Z,96.20
2019-02-26T02:43:35.401Z,96.30
2019-02-26T02:48:39.184Z,96.50
2019-02-26T02:53:45.288Z,96.70
2019-02-26T02:58:51.398Z,96.70
2019-02-26T03:03:57.947Z,96.50
2019-02-26T03:08:59.989Z,96.60
2019-02-26T03:14:05.807Z,96.20
2019-02-26T03:19:09.690Z,96.50
2019-02-26T03:24:14.886Z,96.80
2019-02-26T03:29:18.537Z,97.00
2019-02-26T03:34:25.254Z,97.40
2019-02-26T03:39:27.898Z,97.50
2019-02-26T03:44:31.852Z,98.00
2019-02-26T03:49:35.552Z,98.00
2019-02-26T03:54:40.227Z,98.30
2019-02-26T03:59:45.075Z,98.50
2019-02-26T04:04:53.987Z,98.40
2019-02-26T04:09:55.924Z,98.60
2019-02-26T04:15:00.096Z,98.60
2019-02-26T04:20:05.730Z,98.50
2019-02-26T04:25:43.229Z,98.20
2019-02-26T04:31:03.291Z,98.30
2019-02-26T04:36:16.924Z,97.90
2019-02-26T04:41:49.907Z,98.40
2019-02-26T04:47:05.848Z,98.20
2019-02-26T04:52:11.080Z,98.50
2019-02-26T04:57:15.158Z,99.00
2019-02-26T05:02:18.914Z,99.20
2019-02-26T05:07:22.699Z,99.60
2019-02-26T05:12:30.329Z,99.60
2019-02-26T05:17:33.239Z,99.90
2019-02-26T05:22:38.018Z,99.90
2019-02-26T05:27:44.751Z,99.90
2019-02-26T05:32:47.412Z,99.90
2019-02-26T05:37:51.699Z,99.70
2019-02-26T05:42:56.079Z,99.30
2019-02-26T05:48:00.884Z,98.90
2019-02-26T05:53:07.073Z,98.90
2019-02-26T05:58:12.593Z,98.60
2019-02-26T06:03:18.537Z,98.60
2019-02-26T06:08:25.646Z,98.70
2019-02-26T06:13:29.129Z,98.90
2019-02-26T06:18:32.589Z,99.00
2019-02-26T06:23:38.826Z,98.70
2019-02-26T06:28:43.503Z,98.40
2019-02-26T06:33:47.807Z,98.40
2019-02-26T06:38:54.096Z,97.70
2019-02-26T06:44:01.298Z,97.50
2019-02-26T06:49:05.112Z,97.10
2019-02-26T06:54:09.254Z,96.20
2019-02-26T06:59:13.235Z,95.40
2019-02-26T07:04:17.216Z,94.80
2019-02-26T07:09:20.976Z,94.00
2019-02-26T07:14:26.811Z,93.40
2019-02-26T07:19:31.306Z,92.80
2019-02-26T07:24:35.731Z,92.20
2019-02-26T07:29:41.928Z,92.20
2019-02-26T07:34:47.250Z,92.50
2019-02-26T07:39:51.593Z,92.10
2019-02-26T07:44:55.456Z,90.10
2019-02-26T07:50:01.650Z,79.00
2019-02-26T07:55:06.331Z,68.10
2019-02-26T08:00:13.301Z,59.80
2019-02-26T08:05:19.274Z,56.20
2019-02-26T08:10:22.789Z,53.90
2019-02-26T08:15:27.860Z,48.90
2019-02-26T08:20:33.473Z,44.00
2019-02-26T08:25:37.380Z,44.20
2019-02-26T08:30:44.466Z,43.20
2019-02-26T08:35:46.637Z,41.80
2019-02-26T08:40:50.347Z,44.20
2019-02-26T08:45:54.050Z,42.90
2019-02-26T08:51:00.830Z,44.90
2019-02-26T08:56:04.024Z,45.80
2019-02-26T09:01:08.025Z,46.40
2019-02-26T09:06:13.622Z,38.20
2019-02-26T09:11:17.144Z,37.00
2019-02-26T09:16:22.177Z,42.20
2019-02-26T09:21:26.718Z,41.80
2019-02-26T09:26:30.728Z,45.40
2019-02-26T09:31:34.712Z,49.50
2019-02-26T09:36:38.431Z,49.30
2019-02-26T09:41:43.365Z,46.70
2019-02-26T09:46:47.821Z,46.00
2019-02-26T09:51:51.531Z,43.10
2019-02-26T09:56:55.256Z,43.70
2019-02-26T10:02:01.142Z,40.40
2019-02-26T10:07:06.747Z,33.80
2019-02-26T10:12:12.872Z,30.10
2019-02-26T10:17:17.237Z,27.30
2019-02-26T10:22:22.027Z,26.00
2019-02-26T10:27:28.438Z,26.60
2019-02-26T10:32:32.809Z,25.50
2019-02-26T10:37:43.655Z,25.90
2019-02-26T10:42:48.026Z,26.40
2019-02-26T10:47:54.357Z,27.30
2019-02-26T10:53:01.487Z,27.70
2019-02-26T10:58:07.049Z,27.10
2019-02-26T11:03:11.591Z,25.80
2019-02-26T11:08:14.196Z,25.40
2019-02-26T11:13:20.197Z,28.60
2019-02-26T11:18:23.716Z,35.00
2019-02-26T11:23:31.248Z,31.90
2019-02-26T11:28:38.050Z,29.60
2019-02-26T11:33:39.061Z,28.70
2019-02-26T11:38:44.500Z,29.20
2019-02-26T11:43:48.573Z,30.10
2019-02-26T11:48:53.283Z,33.00
2019-02-26T11:54:00.058Z,35.00
2019-02-26T11:59:06.567Z,37.30
2019-02-26T12:04:11.376Z,39.80
2019-02-26T12:09:16.155Z,42.40
2019-02-26T12:14:21.617Z,41.90
2019-02-26T12:19:26.543Z,43.60
2019-02-26T12:24:33.233Z,44.60
2019-02-26T12:29:36.609Z,46.00
2019-02-26T12:34:41.340Z,46.10
2019-02-26T12:39:47.454Z,46.90
2019-02-26T12:44:51.941Z,48.10
2019-02-26T12:49:56.730Z,50.70
2019-02-26T12:55:04.297Z,50.60
2019-02-26T13:00:10.781Z,49.90
2019-02-26T13:05:18.950Z,49.60
2019-02-26T13:10:21.524Z,49.90
2019-02-26T13:15:25.571Z,48.00
2019-02-26T13:20:29.294Z,47.60
2019-02-26T13:25:33.090Z,48.10
2019-02-26T13:30:37.117Z,47.80
2019-02-26T13:35:42.174Z,49.40
2019-02-26T13:40:46.753Z,48.50
2019-02-26T13:45:50.493Z,48.50
2019-02-26T13:50:54.231Z,47.30
2019-02-26T13:55:58.014Z,47.10
2019-02-26T14:01:01.792Z,47.80
2019-02-26T14:06:06.147Z,48.00
2019-02-26T14:11:09.857Z,49.00
2019-02-26T14:16:13.535Z,48.40
2019-02-26T14:21:17.655Z,48.50
2019-02-26T14:26:21.383Z,47.20
2019-02-26T14:31:25.249Z,48.00
2019-02-26T14:36:29.110Z,47.50
2019-02-26T14:41:32.830Z,47.90
2019-02-26T14:46:37.296Z,49.50
2019-02-26T14:51:41.087Z,48.70
2019-02-26T14:56:44.831Z,49.40
2019-02-26T15:01:48.860Z,51.30
2019-02-26T15:06:52.552Z,50.00
2019-02-26T15:11:56.357Z,50.10
2019-02-26T15:17:00.685Z,50.60
2019-02-26T15:22:04.449Z,51.30
2019-02-26T15:27:08.577Z,51.80
2019-02-26T15:32:12.267Z,52.60
2019-02-26T15:37:18.222Z,53.10
2019-02-26T15:42:22.008Z,52.80
2019-02-26T15:47:26.187Z,54.50
2019-02-26T15:52:30.268Z,55.20
2019-02-26T15:57:34.070Z,55.10
2019-02-26T16:02:37.849Z,56.10
2019-02-26T16:07:41.863Z,56.50
2019-02-26T16:12:45.775Z,57.20
2019-02-26T16:17:49.722Z,57.70
2019-02-26T16:22:53.758Z,58.10
2019-02-26T16:27:57.992Z,59.20
2019-02-26T16:33:01.778Z,60.50
2019-02-26T16:38:05.967Z,59.60
2019-02-26T16:43:09.918Z,60.30
2019-02-26T16:48:13.948Z,60.60
2019-02-26T16:53:18.301Z,60.90
2019-02-26T16:58:22.013Z,61.40
2019-02-26T17:03:25.909Z,61.50
2019-02-26T17:08:29.917Z,61.40
2019-02-26T17:13:34.267Z,61.40
2019-02-26T17:18:38.089Z,62.50
2019-02-26T17:23:41.907Z,62.90
2019-02-26T17:28:45.943Z,63.80
2019-02-26T17:33:50.289Z,64.30
2019-02-26T17:38:54.327Z,65.40
2019-02-26T17:43:59.516Z,65.40
2019-02-26T17:49:03.518Z,66.70
2019-02-26T17:54:07.815Z,66.50
2019-02-26T17:59:11.861Z,67.60
2019-02-26T18:04:15.585Z,68.20
2019-02-26T18:09:22.227Z,69.60
2019-02-26T18:14:25.930Z,69.50
2019-02-26T18:19:49.391Z,69.80
2019-02-26T18:24:47.525Z,70.30
2019-02-26T18:29:51.334Z,71.70
2019-02-26T18:35:14.303Z,73.40
2019-02-26T18:40:20.252Z,75.40
2019-02-26T18:45:28.004Z,77.50
2019-02-26T18:50:31.317Z,78.60
2019-02-26T18:55:35.012Z,79.80
2019-02-26T19:00:38.692Z,80.60
2019-02-26T19:05:42.612Z,82.00
2019-02-26T19:10:46.803Z,83.50
2019-02-26T19:15:50.524Z,85.20
2019-02-26T19:20:54.212Z,86.70
2019-02-26T19:25:58.266Z,87.20
2019-02-26T19:31:23.460Z,88.90
2019-02-26T19:36:27.562Z,89.30
2019-02-26T19:41:31.306Z,89.70
2019-02-26T19:46:35.107Z,90.20
2019-02-26T19:51:38.883Z,90.70
2019-02-26T19:56:42.868Z,90.70
2019-02-26T20:01:46.677Z,90.80
2019-02-26T20:06:50.478Z,91.10
2019-02-26T20:11:56.273Z,91.70
2019-02-26T20:17:14.424Z,92.10
2019-02-26T20:22:11.756Z,92.40
2019-02-26T20:27:15.850Z,92.60
2019-02-26T20:32:21.226Z,92.80
2019-02-26T20:37:25.276Z,93.10
2019-02-26T20:42:29.548Z,93.60
2019-02-26T20:47:33.762Z,94.10
2019-02-26T20:52:37.527Z,93.60
2019-02-26T20:57:41.626Z,93.90
2019-02-26T21:02:45.670Z,93.80
2019-02-26T21:07:49.774Z,94.20
2019-02-26T21:12:53.721Z,93.90
2019-02-26T21:17:58.022Z,94.20
2019-02-26T21:23:02.432Z,93.90
2019-02-26T21:28:06.142Z,93.80
2019-02-26T21:33:10.510Z,94.20
2019-02-26T21:38:14.232Z,94.80
2019-02-26T21:43:17.973Z,95.30
2019-02-26T21:48:22.252Z,95.60
2019-02-26T21:53:26.241Z,95.80
2019-02-26T21:58:29.933Z,96.20
2019-02-26T22:03:33.641Z,96.60
2019-02-26T22:08:38.630Z,96.60
2019-02-26T22:13:42.874Z,96.80
2019-02-26T22:18:46.913Z,97.00
2019-02-26T22:23:50.613Z,97.50
2019-02-26T22:28:54.355Z,97.70
2019-02-26T22:33:58.281Z,97.80
2019-02-26T22:39:02.361Z,97.80
2019-02-26T22:44:06.095Z,98.00
2019-02-26T22:49:09.888Z,98.10
2019-02-26T22:54:13.682Z,98.10
2019-02-26T22:59:17.461Z,98.30
2019-02-26T23:04:21.155Z,98.00
2019-02-26T23:09:27.768Z,98.40
2019-02-26T23:14:32.309Z,98.10
2019-02-26T23:19:36.679Z,98.30
2019-02-26T23:24:42.225Z,97.80
2019-02-26T23:29:46.280Z,97.50
2019-02-26T23:35:03.946Z,97.60
2019-02-26T23:40:08.512Z,97.50
2019-02-26T23:45:12.634Z,98.00
2019-02-26T23:50:16.532Z,98.40
2019-02-26T23:55:20.616Z,98.80
